sensor_id;sensor_type;location;lat;lon;timestamp;pressure;altitude;pressure_sealevel;temperature;humidity
68476;BME280;55464;48.266;14.188;2023-04-09T00:00:25;98388.88;;;5.69;76.23
68476;BME280;55464;48.266;14.188;2023-04-09T00:02:50;98390.00;;;5.68;76.10
68476;BME280;55464;48.266;14.188;2023-04-09T00:05:16;98395.19;;;5.70;76.19
68476;BME280;55464;48.266;14.188;2023-04-09T00:07:41;98386.47;;;5.68;76.14
68476;BME280;55464;48.266;14.188;2023-04-09T00:10:07;98374.47;;;5.64;76.00
68476;BME280;55464;48.266;14.188;2023-04-09T00:12:32;98376.34;;;5.68;76.23
68476;BME280;55464;48.266;14.188;2023-04-09T00:14:58;98380.75;;;5.64;76.40
68476;BME280;55464;48.266;14.188;2023-04-09T00:17:23;98374.47;;;5.64;76.18
68476;BME280;55464;48.266;14.188;2023-04-09T00:19:49;98371.53;;;5.60;76.31
68476;BME280;55464;48.266;14.188;2023-04-09T00:22:14;98367.91;;;5.65;76.33
68476;BME280;55464;48.266;14.188;2023-04-09T00:24:40;98362.75;;;5.63;76.72
68476;BME280;55464;48.266;14.188;2023-04-09T00:27:05;98370.13;;;5.63;76.62
68476;BME280;55464;48.266;14.188;2023-04-09T00:29:31;98366.06;;;5.60;76.59
68476;BME280;55464;48.266;14.188;2023-04-09T00:31:56;98360.59;;;5.60;76.53
68476;BME280;55464;48.266;14.188;2023-04-09T00:34:21;98366.88;;;5.61;76.63
68476;BME280;55464;48.266;14.188;2023-04-09T00:36:47;98368.00;;;5.60;76.64
68476;BME280;55464;48.266;14.188;2023-04-09T00:39:12;98365.25;;;5.60;76.80
68476;BME280;55464;48.266;14.188;2023-04-09T00:41:38;98367.41;;;5.63;76.58
68476;BME280;55464;48.266;14.188;2023-04-09T00:44:03;98367.41;;;5.63;76.80
68476;BME280;55464;48.266;14.188;2023-04-09T00:46:30;98380.25;;;5.62;76.56
68476;BME280;55464;48.266;14.188;2023-04-09T00:48:55;98376.72;;;5.62;76.73
68476;BME280;55464;48.266;14.188;2023-04-09T00:51:21;98369.31;;;5.62;76.76
68476;BME280;55464;48.266;14.188;2023-04-09T00:53:47;98366.56;;;5.62;76.54
68476;BME280;55464;48.266;14.188;2023-04-09T00:56:14;98363.31;;;5.60;76.33
68476;BME280;55464;48.266;14.188;2023-04-09T00:58:41;98363.84;;;5.62;76.50
68476;BME280;55464;48.266;14.188;2023-04-09T01:01:07;98363.13;;;5.57;76.58
68476;BME280;55464;48.266;14.188;2023-04-09T01:03:32;98371.81;;;5.59;76.54
68476;BME280;55464;48.266;14.188;2023-04-09T01:06:09;98375.69;;;5.58;76.80
68476;BME280;55464;48.266;14.188;2023-04-09T01:11:40;98373.25;;;5.56;76.90
68476;BME280;55464;48.266;14.188;2023-04-09T01:14:16;98367.28;;;5.54;76.86
68476;BME280;55464;48.266;14.188;2023-04-09T01:16:48;98368.94;;;5.50;76.86
68476;BME280;55464;48.266;14.188;2023-04-09T01:22:03;98367.34;;;5.49;76.96
68476;BME280;55464;48.266;14.188;2023-04-09T01:24:56;98371.97;;;5.48;77.01
68476;BME280;55464;48.266;14.188;2023-04-09T01:27:15;98368.72;;;5.46;77.08
68476;BME280;55464;48.266;14.188;2023-04-09T01:29:45;98370.09;;;5.49;77.05
68476;BME280;55464;48.266;14.188;2023-04-09T01:32:13;98369.66;;;5.42;77.22
68476;BME280;55464;48.266;14.188;2023-04-09T01:34:41;98374.19;;;5.46;77.12
68476;BME280;55464;48.266;14.188;2023-04-09T01:37:09;98368.16;;;5.49;77.22
68476;BME280;55464;48.266;14.188;2023-04-09T01:39:36;98371.69;;;5.50;77.15
68476;BME280;55464;48.266;14.188;2023-04-09T01:42:03;98365.41;;;5.49;77.13
68476;BME280;55464;48.266;14.188;2023-04-09T01:44:30;98371.47;;;5.46;77.33
68476;BME280;55464;48.266;14.188;2023-04-09T01:46:57;98374.19;;;5.46;77.51
68476;BME280;55464;48.266;14.188;2023-04-09T01:49:23;98363.78;;;5.48;77.71
68476;BME280;55464;48.266;14.188;2023-04-09T01:51:49;98359.16;;;5.49;77.54
68476;BME280;55464;48.266;14.188;2023-04-09T01:54:15;98350.44;;;5.47;77.62
68476;BME280;55464;48.266;14.188;2023-04-09T01:56:42;98366.84;;;5.47;77.71
68476;BME280;55464;48.266;14.188;2023-04-09T01:59:08;98356.19;;;5.45;77.82
68476;BME280;55464;48.266;14.188;2023-04-09T02:01:54;98353.75;;;5.44;77.70
68476;BME280;55464;48.266;14.188;2023-04-09T02:04:26;98364.09;;;5.47;77.60
68476;BME280;55464;48.266;14.188;2023-04-09T02:07:09;98365.41;;;5.49;77.99
68476;BME280;55464;48.266;14.188;2023-04-09T02:09:39;98360.75;;;5.50;77.97
68476;BME280;55464;48.266;14.188;2023-04-09T02:12:11;98357.22;;;5.49;77.84
68476;BME280;55464;48.266;14.188;2023-04-09T02:14:39;98344.22;;;5.41;77.74
68476;BME280;55464;48.266;14.188;2023-04-09T02:17:05;98351.22;;;5.47;77.77
68476;BME280;55464;48.266;14.188;2023-04-09T02:19:39;98352.63;;;5.45;77.70
68476;BME280;55464;48.266;14.188;2023-04-09T02:22:04;98350.50;;;5.42;77.63
68476;BME280;55464;48.266;14.188;2023-04-09T02:24:30;98349.38;;;5.43;77.57
68476;BME280;55464;48.266;14.188;2023-04-09T02:26:55;98353.16;;;5.47;77.44
68476;BME280;55464;48.266;14.188;2023-04-09T02:29:21;98352.63;;;5.45;77.36
68476;BME280;55464;48.266;14.188;2023-04-09T02:31:46;98357.00;;;5.46;77.54
68476;BME280;55464;48.266;14.188;2023-04-09T02:34:11;98355.34;;;5.45;77.83
68476;BME280;55464;48.266;14.188;2023-04-09T02:36:37;98357.28;;;5.44;77.60
68476;BME280;55464;48.266;14.188;2023-04-09T02:39:02;98365.50;;;5.44;77.91
68476;BME280;55464;48.266;14.188;2023-04-09T02:41:28;98362.25;;;5.42;77.87
68476;BME280;55464;48.266;14.188;2023-04-09T02:43:53;98363.13;;;5.38;77.77
68476;BME280;55464;48.266;14.188;2023-04-09T02:46:19;98351.75;;;5.30;77.64
68476;BME280;55464;48.266;14.188;2023-04-09T02:48:44;98364.31;;;5.32;77.59
68476;BME280;55464;48.266;14.188;2023-04-09T02:51:10;98362.03;;;5.39;77.54
68476;BME280;55464;48.266;14.188;2023-04-09T02:53:35;98364.19;;;5.42;78.01
68476;BME280;55464;48.266;14.188;2023-04-09T02:56:02;98353.81;;;5.39;78.07
68476;BME280;55464;48.266;14.188;2023-04-09T02:58:27;98352.69;;;5.40;77.79
68476;BME280;55464;48.266;14.188;2023-04-09T03:00:53;98351.09;;;5.39;77.79
68476;BME280;55464;48.266;14.188;2023-04-09T03:03:18;98355.97;;;5.42;77.94
68476;BME280;55464;48.266;14.188;2023-04-09T03:05:43;98349.97;;;5.40;77.73
68476;BME280;55464;48.266;14.188;2023-04-09T03:08:09;98354.25;;;5.46;77.91
68476;BME280;55464;48.266;14.188;2023-04-09T03:10:35;98343.91;;;5.43;78.15
68476;BME280;55464;48.266;14.188;2023-04-09T03:13:00;98338.22;;;5.39;77.93
68476;BME280;55464;48.266;14.188;2023-04-09T03:15:26;98338.53;;;5.38;78.35
68476;BME280;55464;48.266;14.188;2023-04-09T03:17:51;98335.28;;;5.36;78.07
68476;BME280;55464;48.266;14.188;2023-04-09T03:20:16;98331.97;;;5.39;78.06
68476;BME280;55464;48.266;14.188;2023-04-09T03:22:42;98336.91;;;5.37;78.21
68476;BME280;55464;48.266;14.188;2023-04-09T03:25:08;98331.75;;;5.35;78.10
68476;BME280;55464;48.266;14.188;2023-04-09T03:27:33;98327.00;;;5.41;77.78
68476;BME280;55464;48.266;14.188;2023-04-09T03:29:59;98324.84;;;5.38;77.85
68476;BME280;55464;48.266;14.188;2023-04-09T03:32:24;98322.72;;;5.35;78.02
68476;BME280;55464;48.266;14.188;2023-04-09T03:34:50;98330.91;;;5.35;77.89
68476;BME280;55464;48.266;14.188;2023-04-09T03:37:15;98329.59;;;5.32;77.73
68476;BME280;55464;48.266;14.188;2023-04-09T03:39:41;98337.78;;;5.32;78.07
68476;BME280;55464;48.266;14.188;2023-04-09T03:42:06;98332.03;;;5.34;77.93
68476;BME280;55464;48.266;14.188;2023-04-09T03:44:32;98330.31;;;5.38;77.97
68476;BME280;55464;48.266;14.188;2023-04-09T03:46:57;98340.16;;;5.39;77.86
68476;BME280;55464;48.266;14.188;2023-04-09T03:49:22;98334.69;;;5.39;77.78
68476;BME280;55464;48.266;14.188;2023-04-09T03:51:48;98337.22;;;5.35;77.76
68476;BME280;55464;48.266;14.188;2023-04-09T03:54:13;98331.75;;;5.35;78.02
68476;BME280;55464;48.266;14.188;2023-04-09T03:56:39;98334.69;;;5.39;78.21
68476;BME280;55464;48.266;14.188;2023-04-09T03:59:05;98332.53;;;5.36;78.05
68476;BME280;55464;48.266;14.188;2023-04-09T04:01:31;98327.66;;;5.33;77.90
68476;BME280;55464;48.266;14.188;2023-04-09T04:03:56;98325.97;;;5.37;77.63
68476;BME280;55464;48.266;14.188;2023-04-09T04:06:22;98324.06;;;5.37;77.86
68476;BME280;55464;48.266;14.188;2023-04-09T04:08:47;98327.28;;;5.39;77.58
68476;BME280;55464;48.266;14.188;2023-04-09T04:11:12;98339.56;;;5.42;77.66
68476;BME280;55464;48.266;14.188;2023-04-09T04:13:38;98337.63;;;5.42;77.57
68476;BME280;55464;48.266;14.188;2023-04-09T04:16:07;98334.09;;;5.42;77.85
68476;BME280;55464;48.266;14.188;2023-04-09T04:18:33;98343.09;;;5.42;nan
68476;BME280;55464;48.266;14.188;2023-04-09T04:20:59;98339.56;;;5.42;77.56
68476;BME280;55464;48.266;14.188;2023-04-09T04:23:24;98335.72;;;5.43;77.75
68476;BME280;55464;48.266;14.188;2023-04-09T04:25:50;98343.09;;;5.42;77.70
68476;BME280;55464;48.266;14.188;2023-04-09T04:28:17;98339.88;;;5.40;77.77
68476;BME280;55464;48.266;14.188;2023-04-09T04:30:42;98344.00;;;5.38;77.87
68476;BME280;55464;48.266;14.188;2023-04-09T04:33:08;98338.09;;;5.30;78.02
68476;BME280;55464;48.266;14.188;2023-04-09T04:35:33;98342.47;;;5.32;77.96
68476;BME280;55464;48.266;14.188;2023-04-09T04:37:59;98349.25;;;5.34;78.01
68476;BME280;55464;48.266;14.188;2023-04-09T04:40:25;98346.50;;;5.34;78.18
68476;BME280;55464;48.266;14.188;2023-04-09T04:42:51;98354.13;;;5.37;78.18
68476;BME280;55464;48.266;14.188;2023-04-09T04:45:16;98345.19;;;5.32;78.17
68476;BME280;55464;48.266;14.188;2023-04-09T04:47:42;98348.13;;;5.35;77.90
68476;BME280;55464;48.266;14.188;2023-04-09T04:50:07;98352.47;;;5.36;78.37
68476;BME280;55464;48.266;14.188;2023-04-09T04:52:33;98356.56;;;5.39;78.30
68476;BME280;55464;48.266;14.188;2023-04-09T04:54:58;98355.44;;;5.40;78.35
68476;BME280;55464;48.266;14.188;2023-04-09T04:57:24;98357.59;;;5.43;78.18
68476;BME280;55464;48.266;14.188;2023-04-09T04:59:49;98366.06;;;5.41;78.29
68476;BME280;55464;48.266;14.188;2023-04-09T05:02:15;98358.16;;;5.40;78.32
68476;BME280;55464;48.266;14.188;2023-04-09T05:04:40;98354.63;;;5.39;78.27
68476;BME280;55464;48.266;14.188;2023-04-09T05:07:05;98355.44;;;5.40;78.49
68476;BME280;55464;48.266;14.188;2023-04-09T05:09:31;98358.16;;;5.40;78.59
68476;BME280;55464;48.266;14.188;2023-04-09T05:11:56;98359.88;;;5.36;78.60
68476;BME280;55464;48.266;14.188;2023-04-09T05:14:22;98351.97;;;5.34;78.71
68476;BME280;55464;48.266;14.188;2023-04-09T05:16:48;98362.91;;;5.34;78.79
68476;BME280;55464;48.266;14.188;2023-04-09T05:19:13;98362.69;;;5.30;78.95
68476;BME280;55464;48.266;14.188;2023-04-09T05:21:39;98361.38;;;5.28;79.02
68476;BME280;55464;48.266;14.188;2023-04-09T05:24:05;98360.75;;;5.31;79.10
68476;BME280;55464;48.266;14.188;2023-04-09T05:26:30;98360.16;;;5.34;79.23
68476;BME280;55464;48.266;14.188;2023-04-09T05:28:56;98369.41;;;5.38;79.05
68476;BME280;55464;48.266;14.188;2023-04-09T05:31:21;98368.88;;;5.36;79.09
68476;BME280;55464;48.266;14.188;2023-04-09T05:33:47;98374.06;;;5.38;79.07
68476;BME280;55464;48.266;14.188;2023-04-09T05:36:16;98373.75;;;5.39;79.13
68476;BME280;55464;48.266;14.188;2023-04-09T05:38:42;98381.38;;;5.42;78.98
68476;BME280;55464;48.266;14.188;2023-04-09T05:41:07;98378.06;;;5.45;78.96
68476;BME280;55464;48.266;14.188;2023-04-09T05:43:33;98379.38;;;5.48;79.08
68476;BME280;55464;48.266;14.188;2023-04-09T05:45:58;98366.91;;;5.42;78.98
68476;BME280;55464;48.266;14.188;2023-04-09T05:48:24;98379.59;;;5.52;78.70
68476;BME280;55464;48.266;14.188;2023-04-09T05:50:50;98386.69;;;5.53;79.01
68476;BME280;55464;48.266;14.188;2023-04-09T05:53:18;98384.78;;;5.53;79.28
68476;BME280;55464;48.266;14.188;2023-04-09T05:55:44;98386.47;;;5.49;79.13
68476;BME280;55464;48.266;14.188;2023-04-09T05:58:10;98391.44;;;5.47;79.11
68476;BME280;55464;48.266;14.188;2023-04-09T06:00:36;98388.78;;;5.42;79.22
68476;BME280;55464;48.266;14.188;2023-04-09T06:03:02;98398.00;;;5.46;79.37
68476;BME280;55464;48.266;14.188;2023-04-09T06:05:27;98400.44;;;5.47;79.53
68476;BME280;55464;48.266;14.188;2023-04-09T06:07:52;98409.97;;;5.50;79.23
68476;BME280;55464;48.266;14.188;2023-04-09T06:10:18;98404.72;;;5.54;79.44
68476;BME280;55464;48.266;14.188;2023-04-09T06:12:43;98387.81;;;5.52;79.58
68476;BME280;55464;48.266;14.188;2023-04-09T06:15:09;98397.34;;;5.54;79.42
68476;BME280;55464;48.266;14.188;2023-04-09T06:17:35;98395.13;;;5.56;79.17
68476;BME280;55464;48.266;14.188;2023-04-09T06:20:00;98395.94;;;5.57;79.35
68476;BME280;55464;48.266;14.188;2023-04-09T06:22:25;98397.56;;;5.58;79.31
68476;BME280;55464;48.266;14.188;2023-04-09T06:24:51;98401.69;;;5.55;79.58
68476;BME280;55464;48.266;14.188;2023-04-09T06:27:16;98400.88;;;5.55;79.60
68476;BME280;55464;48.266;14.188;2023-04-09T06:29:43;98408.56;;;5.53;79.67
68476;BME280;55464;48.266;14.188;2023-04-09T06:32:08;98406.34;;;5.55;79.77
68476;BME280;55464;48.266;14.188;2023-04-09T06:34:34;98400.66;;;5.51;79.69
68476;BME280;55464;48.266;14.188;2023-04-09T06:36:59;98407.97;;;5.56;79.69
68476;BME280;55464;48.266;14.188;2023-04-09T06:39:25;98413.13;;;5.57;79.64
68476;BME280;55464;48.266;14.188;2023-04-09T06:41:52;98408.56;;;5.53;79.79
68476;BME280;55464;48.266;14.188;2023-04-09T06:44:17;98412.41;;;5.52;80.14
68476;BME280;55464;48.266;14.188;2023-04-09T06:46:44;98413.53;;;5.51;80.14
68476;BME280;55464;48.266;14.188;2023-04-09T06:49:11;98416.25;;;5.51;79.92
68476;BME280;55464;48.266;14.188;2023-04-09T06:51:36;98424.69;;;5.54;79.84
68476;BME280;55464;48.266;14.188;2023-04-09T06:54:02;98424.06;;;5.57;80.03
68476;BME280;55464;48.266;14.188;2023-04-09T06:56:27;98422.97;;;5.58;79.70
68476;BME280;55464;48.266;14.188;2023-04-09T06:58:53;98422.19;;;5.58;79.52
68476;BME280;55464;48.266;14.188;2023-04-09T07:01:19;98425.19;;;5.56;79.95
68476;BME280;55464;48.266;14.188;2023-04-09T07:03:45;98422.47;;;5.56;80.22
68476;BME280;55464;48.266;14.188;2023-04-09T07:06:10;98427.66;;;5.58;79.90
68476;BME280;55464;48.266;14.188;2023-04-09T07:08:36;98430.38;;;5.58;79.93
68476;BME280;55464;48.266;14.188;2023-04-09T07:11:01;98431.47;;;5.57;80.13
68476;BME280;55464;48.266;14.188;2023-04-09T07:13:27;98425.50;;;5.55;80.23
68476;BME280;55464;48.266;14.188;2023-04-09T07:15:55;98438.34;;;5.54;80.62
68476;BME280;55464;48.266;14.188;2023-04-09T07:18:20;98436.72;;;5.53;80.29
68476;BME280;55464;48.266;14.188;2023-04-09T07:20:45;98432.66;;;5.51;80.68
68476;BME280;55464;48.266;14.188;2023-04-09T07:23:11;98446.25;;;5.56;80.47
68476;BME280;55464;48.266;14.188;2023-04-09T07:25:36;98444.56;;;5.60;80.56
68476;BME280;55464;48.266;14.188;2023-04-09T07:28:02;98446.16;;;5.61;80.59
68476;BME280;55464;48.266;14.188;2023-04-09T07:30:28;98439.81;;;5.65;80.50
68476;BME280;55464;48.266;14.188;2023-04-09T07:32:53;98441.47;;;5.66;80.54
68476;BME280;55464;48.266;14.188;2023-04-09T07:35:19;98433.25;;;5.66;80.62
68476;BME280;55464;48.266;14.188;2023-04-09T07:37:45;98450.41;;;5.72;80.70
68476;BME280;55464;48.266;14.188;2023-04-09T07:40:10;98446.03;;;5.71;80.23
68476;BME280;55464;48.266;14.188;2023-04-09T07:42:37;98451.19;;;5.73;80.44
68476;BME280;55464;48.266;14.188;2023-04-09T07:45:03;98449.06;;;5.69;80.67
68476;BME280;55464;48.266;14.188;2023-04-09T07:47:29;98450.69;;;5.71;80.67
68476;BME280;55464;48.266;14.188;2023-04-09T07:49:54;98448.25;;;5.69;80.58
68476;BME280;55464;48.266;14.188;2023-04-09T07:52:19;98446.31;;;5.69;80.55
68476;BME280;55464;48.266;14.188;2023-04-09T07:54:45;98450.69;;;5.71;80.48
68476;BME280;55464;48.266;14.188;2023-04-09T07:57:10;98455.28;;;5.75;80.63
68476;BME280;55464;48.266;14.188;2023-04-09T07:59:35;98454.66;;;5.78;80.57
68476;BME280;55464;48.266;14.188;2023-04-09T08:02:01;98450.53;;;5.81;80.50
68476;BME280;55464;48.266;14.188;2023-04-09T08:04:27;98451.13;;;5.78;80.48
68476;BME280;55464;48.266;14.188;2023-04-09T08:06:52;98458.75;;;5.81;80.44
68476;BME280;55464;48.266;14.188;2023-04-09T08:09:19;98464.44;;;5.84;80.60
68476;BME280;55464;48.266;14.188;2023-04-09T08:11:45;98459.47;;;5.86;80.63
68476;BME280;55464;48.266;14.188;2023-04-09T08:14:11;98458.38;;;5.87;80.50
68476;BME280;55464;48.266;14.188;2023-04-09T08:16:42;98464.06;;;5.91;80.48
68476;BME280;55464;48.266;14.188;2023-04-09T08:19:09;98472.78;;;5.93;80.57
68476;BME280;55464;48.266;14.188;2023-04-09T08:21:38;98450.53;;;5.81;80.51
68476;BME280;55464;48.266;14.188;2023-04-09T08:24:04;98468.59;;;6.01;80.58
68476;BME280;55464;48.266;14.188;2023-04-09T08:26:31;98466.06;;;6.04;80.40
68476;BME280;55464;48.266;14.188;2023-04-09T08:28:56;98481.38;;;6.05;80.54
68476;BME280;55464;48.266;14.188;2023-04-09T08:31:22;98475.41;;;6.03;80.07
68476;BME280;55464;48.266;14.188;2023-04-09T08:33:47;98480.25;;;6.06;80.01
68476;BME280;55464;48.266;14.188;2023-04-09T08:36:13;98483.00;;;6.06;80.12
68476;BME280;55464;48.266;14.188;2023-04-09T08:38:38;98475.41;;;6.03;80.21
68476;BME280;55464;48.266;14.188;2023-04-09T08:41:04;98485.97;;;6.10;80.25
68476;BME280;55464;48.266;14.188;2023-04-09T08:43:31;98483.25;;;6.10;79.81
68476;BME280;55464;48.266;14.188;2023-04-09T08:46:00;98481.31;;;6.11;79.82
68476;BME280;55464;48.266;14.188;2023-04-09T08:48:27;98490.31;;;6.11;79.72
68476;BME280;55464;48.266;14.188;2023-04-09T08:50:54;98493.88;;;6.12;79.63
68476;BME280;55464;48.266;14.188;2023-04-09T08:53:19;98501.78;;;6.13;79.53
68476;BME280;55464;48.266;14.188;2023-04-09T08:55:46;98500.97;;;6.13;79.60
68476;BME280;55464;48.266;14.188;2023-04-09T08:58:12;98504.22;;;6.15;79.82
68476;BME280;55464;48.266;14.188;2023-04-09T09:00:37;98502.84;;;6.17;79.59
68476;BME280;55464;48.266;14.188;2023-04-09T09:03:10;98503.13;;;6.16;79.95
68476;BME280;55464;48.266;14.188;2023-04-09T09:05:45;98501.19;;;6.16;79.81
68476;BME280;55464;48.266;14.188;2023-04-09T09:08:13;98507.75;;;6.15;79.52
68476;BME280;55464;48.266;14.188;2023-04-09T09:10:44;98497.94;;;6.14;79.47
68476;BME280;55464;48.266;14.188;2023-04-09T09:15:42;98500.81;;;6.23;80.40
68476;BME280;55464;48.266;14.188;2023-04-09T09:18:08;98506.81;;;6.25;80.38
68476;BME280;55464;48.266;14.188;2023-04-09T09:20:33;98510.06;;;6.27;79.66
68476;BME280;55464;48.266;14.188;2023-04-09T09:22:58;98507.03;;;6.29;79.98
68476;BME280;55464;48.266;14.188;2023-04-09T09:25:24;98507.81;;;6.29;80.37
68476;BME280;55464;48.266;14.188;2023-04-09T09:27:51;98513.84;;;6.31;79.88
68476;BME280;55464;48.266;14.188;2023-04-09T09:30:23;98517.38;;;6.32;79.55
68476;BME280;55464;48.266;14.188;2023-04-09T09:33:04;98511.91;;;6.32;78.99
68476;BME280;55464;48.266;14.188;2023-04-09T09:35:30;98522.84;;;6.32;79.07
68476;BME280;55464;48.266;14.188;2023-04-09T09:38:02;98511.09;;;6.31;79.50
68476;BME280;55464;48.266;14.188;2023-04-09T09:40:28;98520.63;;;6.34;79.37
68476;BME280;55464;48.266;14.188;2023-04-09T09:42:55;98525.81;;;6.35;79.28
68476;BME280;55464;48.266;14.188;2023-04-09T09:45:24;98521.13;;;6.36;79.64
68476;BME280;55464;48.266;14.188;2023-04-09T09:47:51;98522.78;;;6.37;79.64
68476;BME280;55464;48.266;14.188;2023-04-09T09:50:17;98520.03;;;6.37;79.54
68476;BME280;55464;48.266;14.188;2023-04-09T09:52:44;98525.22;;;6.38;79.20
68476;BME280;55464;48.266;14.188;2023-04-09T09:55:13;98528.47;;;6.40;79.02
68476;BME280;55464;48.266;14.188;2023-04-09T09:57:43;98524.59;;;6.41;78.78
68476;BME280;55464;48.266;14.188;2023-04-09T10:00:10;98515.28;;;6.42;78.83
68476;BME280;55464;48.266;14.188;2023-04-09T10:02:43;98515.28;;;6.42;78.46
68476;BME280;55464;48.266;14.188;2023-04-09T10:05:12;98525.66;;;6.46;77.86
68476;BME280;55464;48.266;14.188;2023-04-09T10:07:38;98521.78;;;6.47;78.44
68476;BME280;55464;48.266;14.188;2023-04-09T10:10:06;98524.22;;;6.48;78.37
68476;BME280;55464;48.266;14.188;2023-04-09T10:12:32;98523.13;;;6.49;78.15
68476;BME280;55464;48.266;14.188;2023-04-09T10:14:58;98526.88;;;6.53;78.48
68476;BME280;55464;48.266;14.188;2023-04-09T10:17:29;98523.84;;;6.55;78.43
68476;BME280;55464;48.266;14.188;2023-04-09T10:20:09;98517.25;;;6.56;78.16
68476;BME280;55464;48.266;14.188;2023-04-09T10:22:36;98510.16;;;6.55;77.88
68476;BME280;55464;48.266;14.188;2023-04-09T10:25:03;98525.41;;;6.61;78.32
68476;BME280;55464;48.266;14.188;2023-04-09T10:27:30;98516.56;;;6.64;78.54
68476;BME280;55464;48.266;14.188;2023-04-09T10:29:56;98517.06;;;6.66;78.83
68476;BME280;55464;48.266;14.188;2023-04-09T10:32:25;98516.75;;;6.68;78.60
68476;BME280;55464;48.266;14.188;2023-04-09T10:34:56;98519.00;;;6.66;78.58
68476;BME280;55464;48.266;14.188;2023-04-09T10:37:25;98509.88;;;6.70;78.72
68476;BME280;55464;48.266;14.188;2023-04-09T10:39:52;98507.94;;;6.71;78.05
68476;BME280;55464;48.266;14.188;2023-04-09T10:42:35;98508.75;;;6.71;77.32
68476;BME280;55464;48.266;14.188;2023-04-09T10:45:06;98500.31;;;6.68;76.74
68476;BME280;55464;48.266;14.188;2023-04-09T10:47:33;98502.47;;;6.71;76.85
68476;BME280;55464;48.266;14.188;2023-04-09T10:52:44;98493.34;;;6.75;76.62
68476;BME280;55464;48.266;14.188;2023-04-09T10:55:29;98494.16;;;6.76;76.30
68476;BME280;55464;48.266;14.188;2023-04-09T10:57:56;98492.44;;;6.80;77.01
68476;BME280;55464;48.266;14.188;2023-04-09T11:00:21;98476.81;;;6.80;77.05
68476;BME280;55464;48.266;14.188;2023-04-09T11:03:13;98497.72;;;6.90;75.88
68476;BME280;55464;48.266;14.188;2023-04-09T11:05:46;98494.19;;;6.90;75.56
68476;BME280;55464;48.266;14.188;2023-04-09T11:08:14;98492.66;;;6.97;72.41
68476;BME280;55464;48.266;14.188;2023-04-09T11:10:41;98495.09;;;6.99;73.74
68476;BME280;55464;48.266;14.188;2023-04-09T11:13:14;98497.25;;;7.02;75.44
68476;BME280;55464;48.266;14.188;2023-04-09T11:15:41;98493.69;;;7.02;75.33
68476;BME280;55464;48.266;14.188;2023-04-09T11:18:06;98489.81;;;7.03;74.93
68476;BME280;55464;48.266;14.188;2023-04-09T11:20:34;98490.13;;;7.01;73.33
68476;BME280;55464;48.266;14.188;2023-04-09T11:23:00;98492.56;;;7.03;72.86
68476;BME280;55464;48.266;14.188;2023-04-09T11:25:30;98474.41;;;7.07;74.23
68476;BME280;55464;48.266;14.188;2023-04-09T11:27:56;98480.50;;;7.17;75.19
68476;BME280;55464;48.266;14.188;2023-04-09T11:30:21;98487.09;;;7.30;72.14
68476;BME280;55464;48.266;14.188;2023-04-09T11:32:47;98475.81;;;7.32;72.06
68476;BME280;55464;48.266;14.188;2023-04-09T11:35:18;98480.88;;;7.38;75.73
68476;BME280;55464;48.266;14.188;2023-04-09T11:37:45;98488.91;;;7.49;74.67
68476;BME280;55464;48.266;14.188;2023-04-09T11:40:18;98485.41;;;7.57;73.32
68476;BME280;55464;48.266;14.188;2023-04-09T11:42:45;98477.50;;;7.55;71.89
68476;BME280;55464;48.266;14.188;2023-04-09T11:45:14;98477.50;;;7.55;71.47
68476;BME280;55464;48.266;14.188;2023-04-09T11:47:40;98479.13;;;7.56;70.83
68476;BME280;55464;48.266;14.188;2023-04-09T11:50:08;98484.81;;;7.60;71.63
68476;BME280;55464;48.266;14.188;2023-04-09T11:52:34;98476.47;;;7.65;70.53
68476;BME280;55464;48.266;14.188;2023-04-09T11:55:04;98481.53;;;7.72;69.41
68476;BME280;55464;48.266;14.188;2023-04-09T12:00:12;98484.28;;;7.72;69.19
68476;BME280;55464;48.266;14.188;2023-04-09T12:02:43;98485.88;;;7.73;69.64
68476;BME280;55464;48.266;14.188;2023-04-09T12:05:24;98477.16;;;7.71;68.85
68476;BME280;55464;48.266;14.188;2023-04-09T12:07:51;98478.50;;;7.73;69.97
68476;BME280;55464;48.266;14.188;2023-04-09T12:10:17;98476.84;;;7.72;70.10
68476;BME280;55464;48.266;14.188;2023-04-09T12:12:46;98483.69;;;7.75;69.82
68476;BME280;55464;48.266;14.188;2023-04-09T12:15:21;98475.75;;;7.73;70.14
68476;BME280;55464;48.266;14.188;2023-04-09T12:17:53;98483.34;;;7.76;70.27
68476;BME280;55464;48.266;14.188;2023-04-09T12:22:55;98492.09;;;7.79;70.01
68476;BME280;55464;48.266;14.188;2023-04-09T12:25:20;98489.66;;;7.77;70.10
68476;BME280;55464;48.266;14.188;2023-04-09T12:27:46;98481.13;;;7.79;70.90
68476;BME280;55464;48.266;14.188;2023-04-09T12:30:11;98492.78;;;7.84;72.02
68476;BME280;55464;48.266;14.188;2023-04-09T12:32:37;98490.84;;;7.85;72.11
68476;BME280;55464;48.266;14.188;2023-04-09T12:35:03;98487.91;;;7.81;72.10
68476;BME280;55464;48.266;14.188;2023-04-09T12:37:28;98490.34;;;7.83;72.48
68476;BME280;55464;48.266;14.188;2023-04-09T12:39:54;98482.13;;;7.83;73.02
68476;BME280;55464;48.266;14.188;2023-04-09T12:42:20;98487.31;;;7.84;72.67
68476;BME280;55464;48.266;14.188;2023-04-09T12:44:46;98477.75;;;7.82;71.79
68476;BME280;55464;48.266;14.188;2023-04-09T12:47:11;98475.81;;;7.82;71.02
68476;BME280;55464;48.266;14.188;2023-04-09T12:49:37;98488.72;;;7.82;70.57
68476;BME280;55464;48.266;14.188;2023-04-09T12:52:03;98483.75;;;7.84;71.37
68476;BME280;55464;48.266;14.188;2023-04-09T12:54:28;98474.88;;;7.87;71.89
68476;BME280;55464;48.266;14.188;2023-04-09T12:56:53;98492.06;;;7.92;71.53
68476;BME280;55464;48.266;14.188;2023-04-09T12:59:19;98478.84;;;7.94;71.26
68476;BME280;55464;48.266;14.188;2023-04-09T13:01:44;98474.44;;;7.93;70.97
68476;BME280;55464;48.266;14.188;2023-04-09T13:04:10;98472.09;;;8.01;70.42
68476;BME280;55464;48.266;14.188;2023-04-09T13:06:36;98479.72;;;8.04;70.58
68476;BME280;55464;48.266;14.188;2023-04-09T13:09:01;98470.84;;;8.07;70.99
68476;BME280;55464;48.266;14.188;2023-04-09T13:11:27;98470.84;;;8.07;69.49
68476;BME280;55464;48.266;14.188;2023-04-09T13:13:52;98473.28;;;8.08;70.00